sensor_id;sensor_type;location;lat;lon;timestamp;P1;durP1;ratioP1;P2;durP2;ratioP2
23561;SDS011;11959;49.418;8.728;2023-04-03T00:01:36;3.53;;;1.70;;
23561;SDS011;11959;49.418;8.728;2023-04-03T00:04:03;2.70;;;1.70;;
23561;SDS011;11959;49.418;8.728;2023-04-03T00:06:30;2.55;;;1.88;;
23561;SDS011;11959;49.418;8.728;2023-04-03T00:08:56;2.42;;;1.83;;
23561;SDS011;11959;49.418;8.728;2023-04-03T00:11:22;4.90;;;2.03;;
23561;SDS011;11959;49.418;8.728;2023-04-03T00:13:48;3.00;;;1.60;;
23561;SDS011;11959;49.418;8.728;2023-04-03T00:16:14;3.25;;;2.03;;
23561;SDS011;11959;49.418;8.728;2023-04-03T00:18:40;2.97;;;1.88;;
23561;SDS011;11959;49.418;8.728;2023-04-03T00:21:06;4.95;;;2.00;;
23561;SDS011;11959;49.418;8.728;2023-04-03T00:23:33;4.32;;;2.35;;
23561;SDS011;11959;49.418;8.728;2023-04-03T00:26:00;3.13;;;2.05;;
23561;SDS011;11959;49.418;8.728;2023-04-03T00:28:25;2.35;;;1.73;;
23561;SDS011;11959;49.418;8.728;2023-04-03T00:30:51;3.20;;;2.00;;
23561;SDS011;11959;49.418;8.728;2023-04-03T00:33:17;2.92;;;1.83;;
23561;SDS011;11959;49.418;8.728;2023-04-03T00:35:46;4.32;;;2.55;;
23561;SDS011;11959;49.418;8.728;2023-04-03T00:38:13;3.72;;;2.10;;
23561;SDS011;11959;49.418;8.728;2023-04-03T00:40:41;3.42;;;2.00;;
23561;SDS011;11959;49.418;8.728;2023-04-03T00:43:14;3.28;;;2.03;;
23561;SDS011;11959;49.418;8.728;2023-04-03T00:45:46;3.08;;;2.20;;
23561;SDS011;11959;49.418;8.728;2023-04-03T00:48:15;2.83;;;1.83;;
23561;SDS011;11959;49.418;8.728;2023-04-03T00:50:50;3.35;;;2.00;;
23561;SDS011;11959;49.418;8.728;2023-04-03T00:53:18;2.97;;;1.98;;
23561;SDS011;11959;49.418;8.728;2023-04-03T00:55:53;5.63;;;2.38;;
23561;SDS011;11959;49.418;8.728;2023-04-03T00:58:20;3.13;;;1.92;;
23561;SDS011;11959;49.418;8.728;2023-04-03T01:00:52;5.00;;;2.15;;
23561;SDS011;11959;49.418;8.728;2023-04-03T01:03:22;4.40;;;2.05;;
23561;SDS011;11959;49.418;8.728;2023-04-03T01:05:48;4.82;;;2.10;;
23561;SDS011;11959;49.418;8.728;2023-04-03T01:08:14;3.05;;;1.90;;
23561;SDS011;11959;49.418;8.728;2023-04-03T01:10:40;4.53;;;1.85;;
23561;SDS011;11959;49.418;8.728;2023-04-03T01:13:20;3.97;;;2.08;;
23561;SDS011;11959;49.418;8.728;2023-04-03T01:15:48;3.78;;;2.10;;
23561;SDS011;11959;49.418;8.728;2023-04-03T01:18:14;3.13;;;2.17;;
23561;SDS011;11959;49.418;8.728;2023-04-03T01:23:52;3.78;;;2.00;;
23561;SDS011;11959;49.418;8.728;2023-04-03T01:26:21;2.70;;;2.00;;
23561;SDS011;11959;49.418;8.728;2023-04-03T01:28:47;4.80;;;1.80;;
23561;SDS011;11959;49.418;8.728;2023-04-03T01:33:41;3.40;;;2.15;;
23561;SDS011;11959;49.418;8.728;2023-04-03T01:36:08;2.85;;;1.70;;
23561;SDS011;11959;49.418;8.728;2023-04-03T01:38:34;3.28;;;1.80;;
23561;SDS011;11959;49.418;8.728;2023-04-03T01:41:00;5.03;;;1.92;;
23561;SDS011;11959;49.418;8.728;2023-04-03T01:43:26;3.70;;;1.65;;
23561;SDS011;11959;49.418;8.728;2023-04-03T01:45:51;2.88;;;2.00;;
23561;SDS011;11959;49.418;8.728;2023-04-03T01:48:19;3.47;;;2.00;;
23561;SDS011;11959;49.418;8.728;2023-04-03T01:50:45;4.30;;;2.00;;
23561;SDS011;11959;49.418;8.728;2023-04-03T01:53:11;3.10;;;1.90;;
23561;SDS011;11959;49.418;8.728;2023-04-03T01:55:38;2.70;;;1.77;;
23561;SDS011;11959;49.418;8.728;2023-04-03T01:58:03;2.65;;;1.48;;
23561;SDS011;11959;49.418;8.728;2023-04-03T02:00:29;3.47;;;1.80;;
23561;SDS011;11959;49.418;8.728;2023-04-03T02:02:55;4.22;;;2.10;;
23561;SDS011;11959;49.418;8.728;2023-04-03T02:05:21;2.88;;;2.08;;
23561;SDS011;11959;49.418;8.728;2023-04-03T02:07:47;3.92;;;2.03;;
23561;SDS011;11959;49.418;8.728;2023-04-03T02:10:13;3.15;;;1.67;;
23561;SDS011;11959;49.418;8.728;2023-04-03T02:12:39;3.03;;;1.70;;
23561;SDS011;11959;49.418;8.728;2023-04-03T02:15:04;4.68;;;1.80;;
23561;SDS011;11959;49.418;8.728;2023-04-03T02:17:31;5.57;;;2.00;;
23561;SDS011;11959;49.418;8.728;2023-04-03T02:19:56;3.30;;;1.65;;
23561;SDS011;11959;49.418;8.728;2023-04-03T02:22:22;2.53;;;1.55;;
23561;SDS011;11959;49.418;8.728;2023-04-03T02:24:48;2.90;;;1.65;;
23561;SDS011;11959;49.418;8.728;2023-04-03T02:27:13;2.50;;;1.77;;
23561;SDS011;11959;49.418;8.728;2023-04-03T02:29:39;4.68;;;1.83;;
23561;SDS011;11959;49.418;8.728;2023-04-03T02:32:05;4.38;;;1.60;;
23561;SDS011;11959;49.418;8.728;2023-04-03T02:34:30;2.60;;;1.50;;
23561;SDS011;11959;49.418;8.728;2023-04-03T02:36:56;3.60;;;2.17;;
23561;SDS011;11959;49.418;8.728;2023-04-03T02:39:22;2.95;;;1.85;;
23561;SDS011;11959;49.418;8.728;2023-04-03T02:41:47;3.42;;;1.73;;
23561;SDS011;11959;49.418;8.728;2023-04-03T02:44:13;3.80;;;1.60;;
23561;SDS011;11959;49.418;8.728;2023-04-03T02:46:39;2.58;;;1.85;;
23561;SDS011;11959;49.418;8.728;2023-04-03T02:49:05;3.17;;;1.80;;
23561;SDS011;11959;49.418;8.728;2023-04-03T02:51:31;5.38;;;1.58;;
23561;SDS011;11959;49.418;8.728;2023-04-03T02:53:57;2.90;;;1.80;;
23561;SDS011;11959;49.418;8.728;2023-04-03T02:56:23;3.35;;;2.05;;
23561;SDS011;11959;49.418;8.728;2023-04-03T02:58:48;4.75;;;1.60;;
23561;SDS011;11959;49.418;8.728;2023-04-03T03:01:14;3.30;;;1.90;;
23561;SDS011;11959;49.418;8.728;2023-04-03T03:03:40;5.50;;;2.00;;
23561;SDS011;11959;49.418;8.728;2023-04-03T03:06:08;2.70;;;1.50;;
23561;SDS011;11959;49.418;8.728;2023-04-03T03:08:35;4.65;;;2.00;;
23561;SDS011;11959;49.418;8.728;2023-04-03T03:11:01;4.30;;;2.13;;
23561;SDS011;11959;49.418;8.728;2023-04-03T03:13:27;4.60;;;1.92;;
23561;SDS011;11959;49.418;8.728;2023-04-03T03:15:53;2.42;;;1.75;;
23561;SDS011;11959;49.418;8.728;2023-04-03T03:18:19;3.97;;;1.80;;
23561;SDS011;11959;49.418;8.728;2023-04-03T03:20:45;3.13;;;1.83;;
23561;SDS011;11959;49.418;8.728;2023-04-03T03:23:11;4.45;;;1.80;;
23561;SDS011;11959;49.418;8.728;2023-04-03T03:25:40;2.55;;;1.67;;
23561;SDS011;11959;49.418;8.728;2023-04-03T03:28:06;3.25;;;1.60;;
23561;SDS011;11959;49.418;8.728;2023-04-03T03:30:32;4.28;;;2.00;;
23561;SDS011;11959;49.418;8.728;2023-04-03T03:32:57;5.10;;;1.90;;
23561;SDS011;11959;49.418;8.728;2023-04-03T03:35:23;2.78;;;1.92;;
23561;SDS011;11959;49.418;8.728;2023-04-03T03:37:49;3.67;;;1.67;;
23561;SDS011;11959;49.418;8.728;2023-04-03T03:40:15;1.77;;;1.40;;
23561;SDS011;11959;49.418;8.728;2023-04-03T03:42:40;1.75;;;1.50;;
23561;SDS011;11959;49.418;8.728;2023-04-03T03:45:06;2.53;;;1.60;;
23561;SDS011;11959;49.418;8.728;2023-04-03T03:47:32;2.97;;;1.75;;
23561;SDS011;11959;49.418;8.728;2023-04-03T03:49:58;3.95;;;1.85;;
23561;SDS011;11959;49.418;8.728;2023-04-03T03:52:24;2.28;;;1.60;;
23561;SDS011;11959;49.418;8.728;2023-04-03T03:54:51;2.97;;;1.52;;
23561;SDS011;11959;49.418;8.728;2023-04-03T03:57:16;1.92;;;1.30;;
23561;SDS011;11959;49.418;8.728;2023-04-03T03:59:42;4.55;;;1.80;;
23561;SDS011;11959;49.418;8.728;2023-04-03T04:02:09;3.78;;;1.55;;
23561;SDS011;11959;49.418;8.728;2023-04-03T04:04:35;2.80;;;1.80;;
23561;SDS011;11959;49.418;8.728;2023-04-03T04:07:01;1.98;;;1.50;;
23561;SDS011;11959;49.418;8.728;2023-04-03T04:09:27;2.50;;;1.98;;
23561;SDS011;11959;49.418;8.728;2023-04-03T04:11:53;2.80;;;1.50;;
23561;SDS011;11959;49.418;8.728;2023-04-03T04:14:19;3.53;;;1.98;;
23561;SDS011;11959;49.418;8.728;2023-04-03T04:16:47;2.67;;;1.92;;
23561;SDS011;11959;49.418;8.728;2023-04-03T04:19:13;4.22;;;1.80;;
23561;SDS011;11959;49.418;8.728;2023-04-03T04:21:39;3.97;;;1.90;;
23561;SDS011;11959;49.418;8.728;2023-04-03T04:24:06;3.55;;;2.00;;
23561;SDS011;11959;49.418;8.728;2023-04-03T04:26:32;4.63;;;1.67;;
23561;SDS011;11959;49.418;8.728;2023-04-03T04:28:58;2.92;;;1.77;;
23561;SDS011;11959;49.418;8.728;2023-04-03T04:31:24;4.22;;;1.73;;
23561;SDS011;11959;49.418;8.728;2023-04-03T04:33:50;3.78;;;2.20;;
23561;SDS011;11959;49.418;8.728;2023-04-03T04:36:16;2.38;;;1.70;;
23561;SDS011;11959;49.418;8.728;2023-04-03T04:38:42;2.63;;;1.80;;
23561;SDS011;11959;49.418;8.728;2023-04-03T04:41:07;3.40;;;1.95;;
23561;SDS011;11959;49.418;8.728;2023-04-03T04:43:33;3.05;;;1.55;;
23561;SDS011;11959;49.418;8.728;2023-04-03T04:46:00;4.60;;;2.00;;
23561;SDS011;11959;49.418;8.728;2023-04-03T04:48:29;3.20;;;2.13;;
23561;SDS011;11959;49.418;8.728;2023-04-03T04:50:55;2.67;;;1.95;;
23561;SDS011;11959;49.418;8.728;2023-04-03T04:53:21;6.18;;;2.15;;
23561;SDS011;11959;49.418;8.728;2023-04-03T04:55:47;3.58;;;1.90;;
23561;SDS011;11959;49.418;8.728;2023-04-03T04:58:13;2.63;;;1.77;;
23561;SDS011;11959;49.418;8.728;2023-04-03T05:00:38;2.67;;;2.10;;
23561;SDS011;11959;49.418;8.728;2023-04-03T05:03:04;2.47;;;1.80;;
23561;SDS011;11959;49.418;8.728;2023-04-03T05:05:30;3.70;;;2.00;;
23561;SDS011;11959;49.418;8.728;2023-04-03T05:07:56;3.17;;;1.95;;
23561;SDS011;11959;49.418;8.728;2023-04-03T05:10:21;3.70;;;2.00;;
23561;SDS011;11959;49.418;8.728;2023-04-03T05:12:47;2.80;;;2.08;;
23561;SDS011;11959;49.418;8.728;2023-04-03T05:15:13;4.28;;;2.30;;
23561;SDS011;11959;49.418;8.728;2023-04-03T05:17:39;4.13;;;2.00;;
23561;SDS011;11959;49.418;8.728;2023-04-03T05:20:05;4.25;;;2.33;;
23561;SDS011;11959;49.418;8.728;2023-04-03T05:22:31;3.30;;;2.10;;
23561;SDS011;11959;49.418;8.728;2023-04-03T05:24:57;4.28;;;2.55;;
23561;SDS011;11959;49.418;8.728;2023-04-03T05:27:23;2.88;;;2.00;;
23561;SDS011;11959;49.418;8.728;2023-04-03T05:29:49;3.72;;;2.15;;
23561;SDS011;11959;49.418;8.728;2023-04-03T05:32:15;4.60;;;2.47;;
23561;SDS011;11959;49.418;8.728;2023-04-03T05:34:41;5.43;;;2.80;;
23561;SDS011;11959;49.418;8.728;2023-04-03T05:37:07;5.90;;;2.35;;
23561;SDS011;11959;49.418;8.728;2023-04-03T05:39:33;4.35;;;3.00;;
23561;SDS011;11959;49.418;8.728;2023-04-03T05:41:59;4.18;;;2.30;;
23561;SDS011;11959;49.418;8.728;2023-04-03T05:44:25;4.43;;;2.50;;
23561;SDS011;11959;49.418;8.728;2023-04-03T05:46:50;2.92;;;2.28;;
23561;SDS011;11959;49.418;8.728;2023-04-03T05:49:16;3.53;;;2.25;;
23561;SDS011;11959;49.418;8.728;2023-04-03T05:51:42;5.18;;;2.90;;
23561;SDS011;11959;49.418;8.728;2023-04-03T05:54:11;5.72;;;2.58;;
23561;SDS011;11959;49.418;8.728;2023-04-03T05:56:40;4.53;;;2.78;;
23561;SDS011;11959;49.418;8.728;2023-04-03T05:59:06;3.30;;;2.25;;
23561;SDS011;11959;49.418;8.728;2023-04-03T06:01:32;3.55;;;2.50;;
23561;SDS011;11959;49.418;8.728;2023-04-03T06:03:59;4.20;;;2.30;;
23561;SDS011;11959;49.418;8.728;2023-04-03T06:06:24;5.57;;;2.88;;
23561;SDS011;11959;49.418;8.728;2023-04-03T06:08:50;4.22;;;2.67;;
23561;SDS011;11959;49.418;8.728;2023-04-03T06:11:16;6.65;;;3.38;;
23561;SDS011;11959;49.418;8.728;2023-04-03T06:13:42;8.95;;;4.28;;
23561;SDS011;11959;49.418;8.728;2023-04-03T06:16:11;6.80;;;3.63;;
23561;SDS011;11959;49.418;8.728;2023-04-03T06:18:40;6.95;;;3.95;;
23561;SDS011;11959;49.418;8.728;2023-04-03T06:21:06;6.75;;;3.47;;
23561;SDS011;11959;49.418;8.728;2023-04-03T06:23:32;4.90;;;3.25;;
23561;SDS011;11959;49.418;8.728;2023-04-03T06:25:58;5.93;;;3.03;;
23561;SDS011;11959;49.418;8.728;2023-04-03T06:28:24;4.10;;;3.08;;
23561;SDS011;11959;49.418;8.728;2023-04-03T06:30:50;5.88;;;3.65;;
23561;SDS011;11959;49.418;8.728;2023-04-03T06:33:17;8.85;;;3.50;;
23561;SDS011;11959;49.418;8.728;2023-04-03T06:35:45;6.05;;;3.30;;
23561;SDS011;11959;49.418;8.728;2023-04-03T06:38:11;6.10;;;3.42;;
23561;SDS011;11959;49.418;8.728;2023-04-03T06:40:36;4.43;;;2.80;;
23561;SDS011;11959;49.418;8.728;2023-04-03T06:43:02;11.23;;;4.35;;
23561;SDS011;11959;49.418;8.728;2023-04-03T06:45:28;6.00;;;3.17;;
23561;SDS011;11959;49.418;8.728;2023-04-03T06:47:53;9.23;;;3.83;;
23561;SDS011;11959;49.418;8.728;2023-04-03T06:50:19;4.10;;;2.53;;
23561;SDS011;11959;49.418;8.728;2023-04-03T06:52:45;5.05;;;2.90;;
23561;SDS011;11959;49.418;8.728;2023-04-03T06:55:11;7.78;;;3.65;;
23561;SDS011;11959;49.418;8.728;2023-04-03T06:57:37;4.15;;;2.80;;
23561;SDS011;11959;49.418;8.728;2023-04-03T07:00:03;5.75;;;2.88;;
23561;SDS011;11959;49.418;8.728;2023-04-03T07:02:30;4.28;;;2.42;;
23561;SDS011;11959;49.418;8.728;2023-04-03T07:04:56;3.83;;;2.75;;
23561;SDS011;11959;49.418;8.728;2023-04-03T07:07:22;5.28;;;2.40;;
23561;SDS011;11959;49.418;8.728;2023-04-03T07:09:47;5.80;;;2.70;;
23561;SDS011;11959;49.418;8.728;2023-04-03T07:12:14;4.57;;;2.65;;
23561;SDS011;11959;49.418;8.728;2023-04-03T07:14:40;3.92;;;2.45;;
23561;SDS011;11959;49.418;8.728;2023-04-03T07:17:06;3.83;;;2.45;;
23561;SDS011;11959;49.418;8.728;2023-04-03T07:19:32;6.75;;;2.78;;
23561;SDS011;11959;49.418;8.728;2023-04-03T07:21:57;4.05;;;2.72;;
23561;SDS011;11959;49.418;8.728;2023-04-03T07:24:23;4.30;;;2.50;;
23561;SDS011;11959;49.418;8.728;2023-04-03T07:26:49;4.57;;;2.45;;
23561;SDS011;11959;49.418;8.728;2023-04-03T07:29:16;3.20;;;2.25;;
23561;SDS011;11959;49.418;8.728;2023-04-03T07:31:42;6.53;;;2.60;;
23561;SDS011;11959;49.418;8.728;2023-04-03T07:34:09;4.82;;;2.17;;
23561;SDS011;11959;49.418;8.728;2023-04-03T07:36:36;7.63;;;2.55;;
23561;SDS011;11959;49.418;8.728;2023-04-03T07:39:02;3.88;;;2.50;;
23561;SDS011;11959;49.418;8.728;2023-04-03T07:41:28;5.40;;;2.17;;
23561;SDS011;11959;49.418;8.728;2023-04-03T07:43:55;5.55;;;2.30;;
23561;SDS011;11959;49.418;8.728;2023-04-03T07:46:21;3.50;;;2.10;;
23561;SDS011;11959;49.418;8.728;2023-04-03T07:48:47;4.22;;;2.20;;
23561;SDS011;11959;49.418;8.728;2023-04-03T07:51:13;4.57;;;2.00;;
23561;SDS011;11959;49.418;8.728;2023-04-03T07:53:39;5.20;;;2.10;;
23561;SDS011;11959;49.418;8.728;2023-04-03T07:56:05;3.85;;;2.33;;
23561;SDS011;11959;49.418;8.728;2023-04-03T07:58:31;3.88;;;1.75;;
23561;SDS011;11959;49.418;8.728;2023-04-03T08:00:57;4.05;;;1.95;;
23561;SDS011;11959;49.418;8.728;2023-04-03T08:03:23;3.65;;;2.25;;
23561;SDS011;11959;49.418;8.728;2023-04-03T08:05:48;4.28;;;2.20;;
23561;SDS011;11959;49.418;8.728;2023-04-03T08:08:17;3.10;;;1.73;;
23561;SDS011;11959;49.418;8.728;2023-04-03T08:10:52;4.30;;;2.00;;
23561;SDS011;11959;49.418;8.728;2023-04-03T08:15:47;5.65;;;1.50;;
23561;SDS011;11959;49.418;8.728;2023-04-03T08:18:13;3.00;;;1.55;;
23561;SDS011;11959;49.418;8.728;2023-04-03T08:20:40;2.25;;;1.40;;
23561;SDS011;11959;49.418;8.728;2023-04-03T08:23:06;2.53;;;1.70;;
23561;SDS011;11959;49.418;8.728;2023-04-03T08:25:33;2.92;;;1.30;;
23561;SDS011;11959;49.418;8.728;2023-04-03T08:28:02;3.17;;;1.65;;
23561;SDS011;11959;49.418;8.728;2023-04-03T08:30:28;2.88;;;1.55;;
23561;SDS011;11959;49.418;8.728;2023-04-03T08:32:54;2.63;;;1.20;;
23561;SDS011;11959;49.418;8.728;2023-04-03T08:35:20;2.90;;;1.60;;
23561;SDS011;11959;49.418;8.728;2023-04-03T08:37:45;3.03;;;1.40;;
23561;SDS011;11959;49.418;8.728;2023-04-03T08:40:14;4.50;;;1.75;;
23561;SDS011;11959;49.418;8.728;2023-04-03T08:42:44;2.88;;;1.20;;
23561;SDS011;11959;49.418;8.728;2023-04-03T08:46:01;5.57;;;1.50;;
23561;SDS011;11959;49.418;8.728;2023-04-03T08:48:21;4.25;;;1.27;;
23561;SDS011;11959;49.418;8.728;2023-04-03T08:51:04;1.80;;;1.20;;
23561;SDS011;11959;49.418;8.728;2023-04-03T08:53:40;4.00;;;1.40;;
23561;SDS011;11959;49.418;8.728;2023-04-03T08:56:11;3.72;;;1.20;;
23561;SDS011;11959;49.418;8.728;2023-04-03T08:58:50;4.03;;;1.52;;
23561;SDS011;11959;49.418;8.728;2023-04-03T09:01:23;2.78;;;1.20;;
23561;SDS011;11959;49.418;8.728;2023-04-03T09:04:05;3.95;;;1.13;;
23561;SDS011;11959;49.418;8.728;2023-04-03T09:06:36;3.83;;;1.40;;
23561;SDS011;11959;49.418;8.728;2023-04-03T09:17:04;2.45;;;1.17;;
23561;SDS011;11959;49.418;8.728;2023-04-03T09:22:34;3.35;;;1.50;;
23561;SDS011;11959;49.418;8.728;2023-04-03T09:25:10;2.60;;;1.13;;
23561;SDS011;11959;49.418;8.728;2023-04-03T09:27:42;2.03;;;1.23;;
23561;SDS011;11959;49.418;8.728;2023-04-03T09:30:12;2.25;;;1.20;;
23561;SDS011;11959;49.418;8.728;2023-04-03T09:32:40;2.92;;;1.30;;
23561;SDS011;11959;49.418;8.728;2023-04-03T09:37:48;4.50;;;1.38;;
23561;SDS011;11959;49.418;8.728;2023-04-03T09:42:50;4.53;;;1.25;;
23561;SDS011;11959;49.418;8.728;2023-04-03T09:45:24;4.00;;;1.50;;
23561;SDS011;11959;49.418;8.728;2023-04-03T09:50:30;3.25;;;1.45;;
23561;SDS011;11959;49.418;8.728;2023-04-03T09:52:56;2.78;;;1.25;;
23561;SDS011;11959;49.418;8.728;2023-04-03T09:55:25;3.22;;;1.52;;
23561;SDS011;11959;49.418;8.728;2023-04-03T09:57:54;1.50;;;1.10;;
23561;SDS011;11959;49.418;8.728;2023-04-03T10:00:33;3.22;;;1.42;;
23561;SDS011;11959;49.418;8.728;2023-04-03T10:03:02;2.00;;;1.10;;
23561;SDS011;11959;49.418;8.728;2023-04-03T10:05:38;2.33;;;1.10;;
23561;SDS011;11959;49.418;8.728;2023-04-03T10:10:41;2.42;;;1.08;;
23561;SDS011;11959;49.418;8.728;2023-04-03T10:13:12;4.30;;;1.10;;
23561;SDS011;11959;49.418;8.728;2023-04-03T10:15:45;2.95;;;0.93;;
23561;SDS011;11959;49.418;8.728;2023-04-03T10:21:02;2.40;;;1.23;;
23561;SDS011;11959;49.418;8.728;2023-04-03T10:23:40;2.95;;;1.30;;
23561;SDS011;11959;49.418;8.728;2023-04-03T10:34:21;2.95;;;1.35;;
23561;SDS011;11959;49.418;8.728;2023-04-03T10:37:23;4.07;;;1.25;;
23561;SDS011;11959;49.418;8.728;2023-04-03T10:43:06;3.38;;;1.00;;
23561;SDS011;11959;49.418;8.728;2023-04-03T10:45:54;2.88;;;1.10;;
23561;SDS011;11959;49.418;8.728;2023-04-03T10:51:25;1.70;;;1.23;;
23561;SDS011;11959;49.418;8.728;2023-04-03T10:53:57;3.75;;;1.25;;
23561;SDS011;11959;49.418;8.728;2023-04-03T10:56:44;4.75;;;1.10;;
23561;SDS011;11959;49.418;8.728;2023-04-03T11:04:50;3.42;;;1.27;;
23561;SDS011;11959;49.418;8.728;2023-04-03T11:07:23;2.20;;;1.15;;
23561;SDS011;11959;49.418;8.728;2023-04-03T11:09:55;3.10;;;1.10;;
23561;SDS011;11959;49.418;8.728;2023-04-03T11:15:12;3.72;;;1.33;;
23561;SDS011;11959;49.418;8.728;2023-04-03T11:17:46;3.13;;;1.10;;
23561;SDS011;11959;49.418;8.728;2023-04-03T11:20:20;4.07;;;1.73;;
23561;SDS011;11959;49.418;8.728;2023-04-03T11:22:53;2.15;;;1.20;;
23561;SDS011;11959;49.418;8.728;2023-04-03T11:25:26;3.38;;;1.30;;
23561;SDS011;11959;49.418;8.728;2023-04-03T11:28:01;2.92;;;1.30;;
23561;SDS011;11959;49.418;8.728;2023-04-03T11:33:31;3.55;;;1.25;;
23561;SDS011;11959;49.418;8.728;2023-04-03T11:38:37;2.53;;;1.10;;
23561;SDS011;11959;49.418;8.728;2023-04-03T11:41:08;2.75;;;1.13;;
23561;SDS011;11959;49.418;8.728;2023-04-03T11:43:39;2.75;;;1.40;;
23561;SDS011;11959;49.418;8.728;2023-04-03T11:46:07;2.72;;;1.20;;
23561;SDS011;11959;49.418;8.728;2023-04-03T11:51:42;3.05;;;1.52;;
23561;SDS011;11959;49.418;8.728;2023-04-03T11:53:54;2.05;;;1.20;;
23561;SDS011;11959;49.418;8.728;2023-04-03T11:56:39;3.17;;;1.70;;
23561;SDS011;11959;49.418;8.728;2023-04-03T12:01:50;3.20;;;1.20;;
23561;SDS011;11959;49.418;8.728;2023-04-03T12:04:21;3.58;;;1.52;;
23561;SDS011;11959;49.418;8.728;2023-04-03T12:06:50;3.58;;;1.45;;
23561;SDS011;11959;49.418;8.728;2023-04-03T12:11:58;2.05;;;1.17;;
23561;SDS011;11959;49.418;8.728;2023-04-03T12:14:27;4.32;;;1.58;;
23561;SDS011;11959;49.418;8.728;2023-04-03T12:16:54;2.85;;;1.48;;
23561;SDS011;11959;49.418;8.728;2023-04-03T12:19:27;2.85;;;1.50;;
23561;SDS011;11959;49.418;8.728;2023-04-03T12:24:29;2.40;;;1.48;;
23561;SDS011;11959;49.418;8.728;2023-04-03T12:43:08;2.80;;;1.40;;
23561;SDS011;11959;49.418;8.728;2023-04-03T12:51:14;4.65;;;1.80;;
23561;SDS011;11959;49.418;8.728;2023-04-03T12:53:43;2.60;;;1.38;;
23561;SDS011;11959;49.418;8.728;2023-04-03T12:56:20;2.75;;;1.40;;
23561;SDS011;11959;49.418;8.728;2023-04-03T12:58:47;2.38;;;1.42;;
23561;SDS011;11959;49.418;8.728;2023-04-03T13:01:15;2.38;;;1.75;;
23561;SDS011;11959;49.418;8.728;2023-04-03T13:03:44;3.92;;;1.35;;
23561;SDS011;11959;49.418;8.728;2023-04-03T13:09:27;2.38;;;1.50;;
23561;SDS011;11959;49.418;8.728;2023-04-03T13:14:26;2.97;;;1.60;;
23561;SDS011;11959;49.418;8.728;2023-04-03T13:19:29;3.90;;;1.65;;
23561;SDS011;11959;49.418;8.728;2023-04-03T13:22:03;3.08;;;1.20;;
23561;SDS011;11959;49.418;8.728;2023-04-03T13:24:34;1.77;;;1.27;;
23561;SDS011;11959;49.418;8.728;2023-04-03T13:27:03;1.95;;;1.25;;
23561;SDS011;11959;49.418;8.728;2023-04-03T13:29:34;2.72;;;1.38;;
23561;SDS011;11959;49.418;8.728;2023-04-03T13:32:02;2.05;;;1.48;;
23561;SDS011;11959;49.418;8.728;2023-04-03T13:34:35;4.43;;;1.40;;
23561;SDS011;11959;49.418;8.728;2023-04-03T13:37:03;2.40;;;1.50;;
23561;SDS011;11959;49.418;8.728;2023-04-03T13:39:30;1.90;;;1.00;;
23561;SDS011;11959;49.418;8.728;2023-04-03T13:42:43;2.58;;;1.25;;
23561;SDS011;11959;49.418;8.728;2023-04-03T13:44:49;2.42;;;1.48;;
23561;SDS011;11959;49.418;8.728;2023-04-03T13:47:36;4.03;;;1.63;;
23561;SDS011;11959;49.418;8.728;2023-04-03T13:50:15;2.92;;;1.65;;
23561;SDS011;11959;49.418;8.728;2023-04-03T13:58:00;2.13;;;1.50;;
23561;SDS011;11959;49.418;8.728;2023-04-03T14:03:11;2.38;;;1.20;;
23561;SDS011;11959;49.418;8.728;2023-04-03T14:05:48;2.08;;;1.52;;
23561;SDS011;11959;49.418;8.728;2023-04-03T14:08:16;2.17;;;1.42;;
23561;SDS011;11959;49.418;8.728;2023-04-03T14:10:42;2.30;;;1.50;;
23561;SDS011;11959;49.418;8.728;2023-04-03T14:13:12;4.68;;;1.20;;
23561;SDS011;11959;49.418;8.728;2023-04-03T14:15:40;2.92;;;1.40;;
23561;SDS011;11959;49.418;8.728;2023-04-03T14:18:09;2.85;;;1.67;;
23561;SDS011;11959;49.418;8.728;2023-04-03T14:20:36;1.58;;;1.10;;
23561;SDS011;11959;49.418;8.728;2023-04-03T14:23:02;3.40;;;1.23;;
23561;SDS011;11959;49.418;8.728;2023-04-03T14:25:28;2.42;;;1.20;;
23561;SDS011;11959;49.418;8.728;2023-04-03T14:27:54;2.45;;;1.17;;
23561;SDS011;11959;49.418;8.728;2023-04-03T14:32:48;2.42;;;1.33;;
23561;SDS011;11959;49.418;8.728;2023-04-03T14:35:15;2.58;;;1.40;;
23561;SDS011;11959;49.418;8.728;2023-04-03T14:37:41;1.83;;;1.20;;
23561;SDS011;11959;49.418;8.728;2023-04-03T14:40:08;2.83;;;1.20;;
23561;SDS011;11959;49.418;8.728;2023-04-03T14:42:37;2.80;;;1.40;;
23561;SDS011;11959;49.418;8.728;2023-04-03T14:45:04;3.42;;;1.35;;
23561;SDS011;11959;49.418;8.728;2023-04-03T14:47:33;1.83;;;1.48;;
23561;SDS011;11959;49.418;8.728;2023-04-03T14:50:03;3.15;;;1.60;;
23561;SDS011;11959;49.418;8.728;2023-04-03T14:52:33;3.05;;;1.52;;
23561;SDS011;11959;49.418;8.728;2023-04-03T14:55:01;3.15;;;1.23;;
23561;SDS011;11959;49.418;8.728;2023-04-03T14:57:28;1.40;;;1.20;;
23561;SDS011;11959;49.418;8.728;2023-04-03T14:59:55;2.30;;;1.38;;
23561;SDS011;11959;49.418;8.728;2023-04-03T15:04:46;3.60;;;1.38;;
23561;SDS011;11959;49.418;8.728;2023-04-03T15:07:12;3.47;;;1.40;;
23561;SDS011;11959;49.418;8.728;2023-04-03T15:09:39;3.55;;;1.50;;
23561;SDS011;11959;49.418;8.728;2023-04-03T15:12:04;2.60;;;1.38;;
23561;SDS011;11959;49.418;8.728;2023-04-03T15:14:33;3.53;;;1.20;;
23561;SDS011;11959;49.418;8.728;2023-04-03T15:16:58;3.13;;;1.70;;
23561;SDS011;11959;49.418;8.728;2023-04-03T15:19:24;2.35;;;1.27;;
23561;SDS011;11959;49.418;8.728;2023-04-03T15:21:50;2.40;;;1.38;;
23561;SDS011;11959;49.418;8.728;2023-04-03T15:24:16;2.42;;;1.45;;
23561;SDS011;11959;49.418;8.728;2023-04-03T15:26:41;3.40;;;1.63;;
23561;SDS011;11959;49.418;8.728;2023-04-03T15:29:07;3.10;;;1.58;;
23561;SDS011;11959;49.418;8.728;2023-04-03T15:31:33;2.08;;;1.33;;
23561;SDS011;11959;49.418;8.728;2023-04-03T15:33:59;2.40;;;1.40;;
23561;SDS011;11959;49.418;8.728;2023-04-03T15:36:25;4.95;;;1.50;;
23561;SDS011;11959;49.418;8.728;2023-04-03T15:38:50;1.88;;;1.15;;
23561;SDS011;11959;49.418;8.728;2023-04-03T15:41:16;3.25;;;1.30;;
23561;SDS011;11959;49.418;8.728;2023-04-03T15:43:42;2.47;;;1.13;;
23561;SDS011;11959;49.418;8.728;2023-04-03T15:46:08;2.05;;;1.10;;
23561;SDS011;11959;49.418;8.728;2023-04-03T15:48:34;4.03;;;1.40;;
23561;SDS011;11959;49.418;8.728;2023-04-03T15:51:01;3.10;;;1.05;;
23561;SDS011;11959;49.418;8.728;2023-04-03T15:53:26;1.75;;;1.05;;
23561;SDS011;11959;49.418;8.728;2023-04-03T15:55:52;3.83;;;1.17;;
23561;SDS011;11959;49.418;8.728;2023-04-03T15:58:18;1.75;;;1.13;;
23561;SDS011;11959;49.418;8.728;2023-04-03T16:00:43;1.45;;;1.00;;
23561;SDS011;11959;49.418;8.728;2023-04-03T16:03:10;3.70;;;1.48;;
23561;SDS011;11959;49.418;8.728;2023-04-03T16:05:39;2.25;;;1.00;;
23561;SDS011;11959;49.418;8.728;2023-04-03T16:08:05;2.63;;;1.27;;
23561;SDS011;11959;49.418;8.728;2023-04-03T16:10:32;3.42;;;1.38;;
23561;SDS011;11959;49.418;8.728;2023-04-03T16:12:59;2.35;;;1.20;;
23561;SDS011;11959;49.418;8.728;2023-04-03T16:15:25;2.13;;;1.25;;
23561;SDS011;11959;49.418;8.728;2023-04-03T16:17:51;2.83;;;1.20;;
23561;SDS011;11959;49.418;8.728;2023-04-03T16:20:18;1.95;;;1.30;;
23561;SDS011;11959;49.418;8.728;2023-04-03T16:22:44;3.70;;;1.42;;
23561;SDS011;11959;49.418;8.728;2023-04-03T16:25:10;2.22;;;1.40;;
23561;SDS011;11959;49.418;8.728;2023-04-03T16:27:37;2.38;;;1.13;;
23561;SDS011;11959;49.418;8.728;2023-04-03T16:30:03;2.25;;;1.20;;
23561;SDS011;11959;49.418;8.728;2023-04-03T16:32:30;2.47;;;1.00;;
23561;SDS011;11959;49.418;8.728;2023-04-03T16:34:57;2.40;;;1.17;;
23561;SDS011;11959;49.418;8.728;2023-04-03T16:37:23;2.88;;;1.30;;
23561;SDS011;11959;49.418;8.728;2023-04-03T16:39:49;1.80;;;1.13;;
23561;SDS011;11959;49.418;8.728;2023-04-03T16:42:15;2.63;;;1.20;;
23561;SDS011;11959;49.418;8.728;2023-04-03T16:44:40;1.60;;;1.20;;
23561;SDS011;11959;49.418;8.728;2023-04-03T16:47:06;2.45;;;1.00;;